createdAt,value
2022-09-10T00:01:27.832Z,45.00
2022-09-10T00:04:04.528Z,47.00
2022-09-10T00:06:37.099Z,45.00
2022-09-10T00:09:09.055Z,47.50
2022-09-10T00:11:42.364Z,63.75
2022-09-10T00:14:18.770Z,45.67
2022-09-10T00:16:50.112Z,43.00
2022-09-10T00:19:21.145Z,42.25
2022-09-10T00:21:52.147Z,45.00
2022-09-10T00:24:24.295Z,43.00
2022-09-10T00:26:55.289Z,42.00
2022-09-10T00:29:26.112Z,44.00
2022-09-10T00:31:59.962Z,42.75
2022-09-10T00:34:30.791Z,44.25
2022-09-10T00:37:03.698Z,45.75
2022-09-10T00:39:34.827Z,42.00
2022-09-10T00:42:09.307Z,40.50
2022-09-10T00:44:46.365Z,40.50
2022-09-10T00:47:31.116Z,38.00
2022-09-10T00:50:30.593Z,35.00
2022-09-10T00:53:08.113Z,38.50
2022-09-10T00:55:44.558Z,40.67
2022-09-10T00:58:19.797Z,42.00
2022-09-10T01:00:53.695Z,42.00
2022-09-10T01:03:25.905Z,41.00
2022-09-10T01:05:57.270Z,39.00
2022-09-10T01:08:32.141Z,38.00
2022-09-10T01:11:12.970Z,37.50
2022-09-10T01:14:08.089Z,40.50
2022-09-10T01:17:03.208Z,41.00
2022-09-10T01:23:12.491Z,40.67
2022-09-10T01:26:06.358Z,40.00
2022-09-10T01:29:02.671Z,43.00
2022-09-10T01:37:37.824Z,40.00
2022-09-10T01:40:12.895Z,39.00
2022-09-10T01:42:43.941Z,41.00
2022-09-10T01:45:17.190Z,41.00
2022-09-10T01:48:11.391Z,40.67
2022-09-10T01:51:00.287Z,40.00
2022-09-10T01:53:50.434Z,41.00
2022-09-10T01:56:38.606Z,39.67
2022-09-10T01:59:45.412Z,40.00
2022-09-10T02:02:35.586Z,41.33
2022-09-10T02:07:40.740Z,40.00
2022-09-10T02:10:13.495Z,40.75
2022-09-10T02:12:48.559Z,41.00
2022-09-10T02:15:44.517Z,42.75
2022-09-10T02:18:23.231Z,43.33
2022-09-10T02:20:59.641Z,45.00
2022-09-10T02:23:41.120Z,42.00
2022-09-10T02:26:11.802Z,42.50
2022-09-10T02:28:42.387Z,47.00
2022-09-10T02:31:14.655Z,42.00
2022-09-10T02:33:45.416Z,42.00
2022-09-10T02:36:16.035Z,42.00
2022-09-10T02:38:47.194Z,43.00
2022-09-10T02:41:17.982Z,41.00
2022-09-10T02:43:48.309Z,41.25
2022-09-10T02:46:19.933Z,41.00
2022-09-10T02:48:51.043Z,38.50
2022-09-10T02:53:51.326Z,40.00
2022-09-10T02:56:22.445Z,37.00
2022-09-10T02:58:53.231Z,36.75
2022-09-10T03:01:25.963Z,38.75
2022-09-10T03:04:05.992Z,38.00
2022-09-10T03:06:39.907Z,41.50
2022-09-10T03:09:12.006Z,38.00
2022-09-10T03:11:43.439Z,36.00
2022-09-10T03:16:46.867Z,40.33
2022-09-10T03:19:18.687Z,39.67
2022-09-10T03:21:49.978Z,40.00
2022-09-10T03:24:20.750Z,40.00
2022-09-10T03:26:51.506Z,39.50
2022-09-10T03:29:24.465Z,38.00
2022-09-10T03:31:56.411Z,41.00
2022-09-10T03:34:26.775Z,42.00
2022-09-10T03:36:57.124Z,37.25
2022-09-10T03:39:27.491Z,38.00
2022-09-10T03:41:57.928Z,37.75
2022-09-10T03:47:02.318Z,40.00
2022-09-10T03:49:32.422Z,41.00
2022-09-10T03:52:04.089Z,38.25
2022-09-10T03:54:38.488Z,41.00
2022-09-10T03:57:10.067Z,38.00
2022-09-10T03:59:42.814Z,40.00
2022-09-10T04:02:16.132Z,37.00
2022-09-10T04:04:48.560Z,36.00
2022-09-10T04:07:19.389Z,40.25
2022-09-10T04:09:52.490Z,37.00
2022-09-10T04:12:22.436Z,40.00
2022-09-10T04:14:52.732Z,42.00
2022-09-10T04:17:23.185Z,39.00
2022-09-10T04:19:53.440Z,40.00
2022-09-10T04:22:24.258Z,38.00
2022-09-10T04:24:55.429Z,42.00
2022-09-10T04:29:56.263Z,34.50
2022-09-10T04:32:36.453Z,38.25
2022-09-10T04:35:10.941Z,42.00
2022-09-10T04:37:41.634Z,41.25
2022-09-10T04:40:14.112Z,44.00
2022-09-10T04:42:44.694Z,43.00
2022-09-10T04:45:15.693Z,42.00
2022-09-10T04:47:47.668Z,42.00
2022-09-10T04:50:18.299Z,40.00
2022-09-10T04:53:09.382Z,42.00
2022-09-10T04:55:41.865Z,41.00
2022-09-10T04:58:13.308Z,39.00
2022-09-10T05:03:16.251Z,47.75
2022-09-10T05:05:49.874Z,40.50
2022-09-10T05:08:20.660Z,34.67
2022-09-10T05:11:00.467Z,43.33
2022-09-10T05:13:33.299Z,40.50
2022-09-10T05:16:04.297Z,38.50
2022-09-10T05:18:36.830Z,40.00
2022-09-10T05:21:09.399Z,42.00
2022-09-10T05:23:41.143Z,45.33
2022-09-10T05:26:11.520Z,47.50
2022-09-10T05:28:41.638Z,44.50
2022-09-10T05:31:14.079Z,42.75
2022-09-10T05:33:46.050Z,47.00
2022-09-10T05:36:16.594Z,47.25
2022-09-10T05:38:47.621Z,34.50
2022-09-10T05:41:18.850Z,45.25
2022-09-10T05:46:21.836Z,44.25
2022-09-10T05:48:56.990Z,35.75
2022-09-10T05:51:31.086Z,42.00
2022-09-10T05:54:06.490Z,49.75
2022-09-10T05:56:37.567Z,41.25
2022-09-10T05:59:08.031Z,40.25
2022-09-10T06:01:40.921Z,42.00
2022-09-10T06:04:13.602Z,35.75
2022-09-10T06:06:44.743Z,38.50
2022-09-10T06:09:18.365Z,35.00
2022-09-10T06:12:14.777Z,40.67
2022-09-10T06:14:45.653Z,34.33
2022-09-10T06:17:19.266Z,43.00
2022-09-10T06:19:53.139Z,50.00
2022-09-10T06:22:23.747Z,38.67
2022-09-10T06:24:55.190Z,50.00
2022-09-10T06:27:27.846Z,45.00
2022-09-10T06:29:58.545Z,39.25
2022-09-10T06:32:30.102Z,42.00
2022-09-10T06:35:01.132Z,47.50
2022-09-10T06:37:35.999Z,43.00
2022-09-10T06:40:11.765Z,50.00
2022-09-10T06:42:45.128Z,50.00
2022-09-10T06:45:16.291Z,44.00
2022-09-10T06:51:01.566Z,48.67
2022-09-10T06:53:38.443Z,47.00
2022-09-10T06:56:12.584Z,35.25
2022-09-10T06:58:44.698Z,42.50
2022-09-10T07:01:21.556Z,50.00
2022-09-10T07:04:04.888Z,49.75
2022-09-10T07:06:38.718Z,45.00
2022-09-10T07:09:14.035Z,49.25
2022-09-10T07:12:02.206Z,49.75
2022-09-10T07:14:34.975Z,45.00
2022-09-10T07:17:09.275Z,46.00
2022-09-10T07:19:41.339Z,48.00
2022-09-10T07:22:19.556Z,48.50
2022-09-10T07:24:52.921Z,48.00
2022-09-10T07:27:34.923Z,39.00
2022-09-10T07:30:05.448Z,44.50
2022-09-10T07:32:36.831Z,43.00
2022-09-10T07:35:14.574Z,47.00
2022-09-10T07:37:48.168Z,53.00
2022-09-10T07:40:18.886Z,50.00
2022-09-10T07:42:49.847Z,43.50
2022-09-10T07:45:20.396Z,45.00
2022-09-10T07:47:51.523Z,49.75
2022-09-10T07:50:23.196Z,47.25
2022-09-10T07:52:56.579Z,50.00
2022-09-10T07:55:28.802Z,43.75
2022-09-10T07:58:00.185Z,49.00
2022-09-10T08:00:33.309Z,46.25
2022-09-10T08:03:08.980Z,46.25
2022-09-10T08:05:41.060Z,49.00
2022-09-10T08:08:12.068Z,47.00
2022-09-10T08:10:43.500Z,43.25
2022-09-10T08:13:14.714Z,49.00
2022-09-10T08:15:46.615Z,50.75
2022-09-10T08:18:18.736Z,50.00
2022-09-10T08:20:56.759Z,50.00
2022-09-10T08:23:30.760Z,47.00
2022-09-10T08:26:01.298Z,49.33
2022-09-10T08:28:32.484Z,50.00
2022-09-10T08:31:13.010Z,50.00
2022-09-10T08:33:58.532Z,50.00
2022-09-10T08:36:29.716Z,49.75
2022-09-10T08:41:40.579Z,48.00
2022-09-10T08:44:43.986Z,42.25
2022-09-10T08:47:56.819Z,45.75
2022-09-10T08:50:32.484Z,47.67
2022-09-10T08:53:29.077Z,50.00
2022-09-10T08:56:11.794Z,49.75
2022-09-10T08:59:26.587Z,54.00
2022-09-10T09:02:31.911Z,50.00
2022-09-10T09:05:20.387Z,50.25
2022-09-10T09:07:54.660Z,45.50
2022-09-10T09:10:46.571Z,50.00
2022-09-10T09:13:36.397Z,50.00
2022-09-10T09:16:28.233Z,49.50
2022-09-10T09:19:18.337Z,50.00
2022-09-10T09:21:56.894Z,46.25
2022-09-10T09:25:00.032Z,50.00
2022-09-10T09:27:40.647Z,46.50
2022-09-10T09:30:24.485Z,49.50
2022-09-10T09:36:04.629Z,49.50
2022-09-10T09:38:50.304Z,43.33
2022-09-10T09:41:52.804Z,48.00
2022-09-10T09:44:42.819Z,48.33
2022-09-10T09:47:12.955Z,50.00
2022-09-10T09:52:26.110Z,44.67
2022-09-10T09:55:14.377Z,50.00
2022-09-10T09:57:45.024Z,50.00
2022-09-10T10:00:39.587Z,50.00
2022-09-10T10:03:39.044Z,50.00
2022-09-10T10:06:12.280Z,49.00
2022-09-10T10:08:47.284Z,48.33
2022-09-10T10:11:22.733Z,50.25
2022-09-10T10:13:53.222Z,48.67
2022-09-10T10:16:32.935Z,50.00
2022-09-10T10:19:05.267Z,50.00
2022-09-10T10:21:38.302Z,56.00
2022-09-10T10:24:35.857Z,47.25
2022-09-10T10:27:06.352Z,50.00
2022-09-10T10:32:17.652Z,48.33
2022-09-10T10:35:15.819Z,50.00
2022-09-10T10:38:09.669Z,48.00
2022-09-10T10:40:58.320Z,49.50
2022-09-10T10:43:46.264Z,50.00
2022-09-10T10:46:50.054Z,50.00
2022-09-10T10:49:21.122Z,49.00
2022-09-10T10:52:20.587Z,49.50
2022-09-10T10:55:00.416Z,49.33
2022-09-10T11:00:23.427Z,48.00
2022-09-10T11:03:12.540Z,53.00
2022-09-10T11:05:52.748Z,55.00
2022-09-10T11:08:37.647Z,59.50
2022-09-10T11:11:18.867Z,71.00
2022-09-10T11:13:54.688Z,70.75
2022-09-10T11:16:45.645Z,70.00
2022-09-10T11:19:22.048Z,50.00
2022-09-10T11:22:24.771Z,55.50
2022-09-10T11:25:07.953Z,58.25
2022-09-10T11:27:46.313Z,70.00
2022-09-10T11:30:19.207Z,69.50
2022-09-10T11:32:57.860Z,59.50
2022-09-10T11:35:42.861Z,50.00
2022-09-10T11:38:28.169Z,52.25
2022-09-10T11:41:16.834Z,54.25
2022-09-10T11:43:54.366Z,50.00
2022-09-10T11:46:34.754Z,50.00
2022-09-10T11:49:36.776Z,50.00
2022-09-10T11:52:06.937Z,48.00
2022-09-10T11:54:39.726Z,50.00
2022-09-10T11:57:20.977Z,50.00
2022-09-10T12:00:13.075Z,55.25
2022-09-10T12:03:12.304Z,57.50
2022-09-10T12:05:57.263Z,51.75
2022-09-10T12:08:58.157Z,52.00
2022-09-10T12:11:57.115Z,53.75
2022-09-10T12:14:27.235Z,55.00
2022-09-10T12:17:21.118Z,57.33
2022-09-10T12:19:56.302Z,58.00
2022-09-10T12:22:38.166Z,67.50
2022-09-10T12:25:24.493Z,61.00
2022-09-10T12:28:00.572Z,57.75
2022-09-10T12:30:35.128Z,60.00
2022-09-10T12:33:26.651Z,54.00
2022-09-10T12:35:57.202Z,55.00
2022-09-10T12:38:51.510Z,45.00
2022-09-10T12:41:28.523Z,45.00
2022-09-10T12:44:03.446Z,40.67
2022-09-10T12:46:35.182Z,31.75
2022-09-10T12:49:15.016Z,25.50
2022-09-10T12:52:01.645Z,22.00
2022-09-10T12:55:00.958Z,25.00
2022-09-10T12:57:36.880Z,35.50
2022-09-10T13:00:23.743Z,18.00
2022-09-10T13:03:12.603Z,27.00
2022-09-10T13:05:55.823Z,29.00
2022-09-10T13:08:33.850Z,27.00
2022-09-10T13:11:15.865Z,28.25
2022-09-10T13:14:03.253Z,18.00
2022-09-10T13:16:33.804Z,37.00
2022-09-10T13:19:18.719Z,20.00
2022-09-10T13:21:49.395Z,22.75
2022-09-10T13:24:38.064Z,14.00
2022-09-10T13:27:36.571Z,30.67
2022-09-10T13:30:24.514Z,21.00
2022-09-10T13:33:07.182Z,20.00
2022-09-10T13:36:02.810Z,17.50
2022-09-10T13:38:51.797Z,17.00
2022-09-10T13:41:42.681Z,14.75
2022-09-10T13:44:22.102Z,23.25
2022-09-10T13:46:58.010Z,23.00
2022-09-10T13:50:00.217Z,25.00
2022-09-10T13:52:38.325Z,15.00
2022-09-10T13:55:09.858Z,14.75
2022-09-10T13:57:49.057Z,15.00
2022-09-10T14:00:29.729Z,21.00
2022-09-10T14:05:45.055Z,20.50
2022-09-10T14:08:24.894Z,15.00
2022-09-10T14:10:59.228Z,18.00
2022-09-10T14:13:56.270Z,25.00
2022-09-10T14:16:37.174Z,15.50
2022-09-10T14:19:30.333Z,21.00
2022-09-10T14:22:01.592Z,18.00
2022-09-10T14:24:39.278Z,17.00
2022-09-10T14:27:17.761Z,17.00
2022-09-10T14:29:48.785Z,17.00
2022-09-10T14:32:29.367Z,20.75
2022-09-10T14:35:02.725Z,15.00
2022-09-10T14:37:44.283Z,14.50
2022-09-10T14:40:22.681Z,21.33
2022-09-10T14:42:53.574Z,15.00
2022-09-10T14:48:38.430Z,16.50
2022-09-10T14:51:22.047Z,22.00
2022-09-10T14:54:01.003Z,20.00
2022-09-10T14:56:46.495Z,17.25
2022-09-10T14:59:22.873Z,20.00
2022-09-10T15:01:54.247Z,21.50
2022-09-10T15:04:29.632Z,24.00
2022-09-10T15:07:02.504Z,20.00
2022-09-10T15:09:33.154Z,21.00
2022-09-10T15:14:40.382Z,19.50
2022-09-10T15:17:16.623Z,17.50
2022-09-10T15:19:48.557Z,24.00
2022-09-10T15:22:31.906Z,20.00
2022-09-10T15:25:11.145Z,17.00
2022-09-10T15:27:49.899Z,17.50
2022-09-10T15:32:50.450Z,17.00
2022-09-10T15:35:20.964Z,20.00
2022-09-10T15:37:52.839Z,20.00
2022-09-10T15:40:23.500Z,17.75
2022-09-10T15:42:55.125Z,20.00
2022-09-10T15:45:26.640Z,14.25
2022-09-10T15:47:58.384Z,15.00
2022-09-10T15:50:29.935Z,19.50
2022-09-10T15:53:00.902Z,13.50
2022-09-10T15:55:32.430Z,17.00
2022-09-10T15:58:02.964Z,18.00
2022-09-10T16:00:36.243Z,20.50
2022-09-10T16:03:06.888Z,17.00
2022-09-10T16:05:37.454Z,20.00
2022-09-10T16:08:08.533Z,20.00
2022-09-10T16:10:42.546Z,22.00
2022-09-10T16:13:12.998Z,22.00
2022-09-10T16:15:43.535Z,20.00
2022-09-10T16:18:15.005Z,19.33
2022-09-10T16:20:46.073Z,22.50
2022-09-10T16:23:16.619Z,25.00
2022-09-10T16:25:58.937Z,26.00
2022-09-10T16:28:29.887Z,26.00
2022-09-10T16:31:11.402Z,25.00
2022-09-10T16:33:41.940Z,22.00
2022-09-10T16:38:44.223Z,22.00
2022-09-10T16:41:16.522Z,26.00
2022-09-10T16:43:46.926Z,30.50
2022-09-10T16:46:19.700Z,27.00
2022-09-10T16:48:54.429Z,27.50
2022-09-10T16:51:27.737Z,19.33
2022-09-10T16:54:04.715Z,20.00
2022-09-10T16:56:42.231Z,22.00
2022-09-10T16:59:21.796Z,29.00
2022-09-10T17:01:53.952Z,18.00
2022-09-10T17:06:59.775Z,17.25
2022-09-10T17:09:30.315Z,24.25
2022-09-10T17:12:00.493Z,18.00
2022-09-10T17:14:30.518Z,20.00
2022-09-10T17:17:02.205Z,22.00
2022-09-10T17:19:32.329Z,24.50
2022-09-10T17:22:03.165Z,17.00
2022-09-10T17:24:33.169Z,22.25
2022-09-10T17:27:04.871Z,22.00
2022-09-10T17:29:35.151Z,18.00
2022-09-10T17:32:05.428Z,18.00
2022-09-10T17:34:36.420Z,17.00
2022-09-10T17:37:06.662Z,26.75
2022-09-10T17:42:07.352Z,36.00
2022-09-10T17:44:37.367Z,36.50
2022-09-10T17:47:08.531Z,34.00
2022-09-10T17:52:09.625Z,30.50
2022-09-10T17:54:39.545Z,31.00
2022-09-10T17:57:09.597Z,31.25
2022-09-10T17:59:40.793Z,30.67
2022-09-10T18:02:16.901Z,50.00
2022-09-10T18:04:51.616Z,30.00
2022-09-10T18:09:51.122Z,30.75
2022-09-10T18:12:21.454Z,31.25
2022-09-10T18:14:52.552Z,28.50
2022-09-10T18:17:23.053Z,28.00
2022-09-10T18:19:53.144Z,26.00
2022-09-10T18:24:53.066Z,23.25
2022-09-10T18:27:22.980Z,22.75
2022-09-10T18:29:52.916Z,25.00
2022-09-10T18:32:26.150Z,21.75
2022-09-10T18:34:56.400Z,25.00
2022-09-10T18:37:41.028Z,22.00
2022-09-10T18:40:12.071Z,23.25
2022-09-10T18:42:46.596Z,22.25
2022-09-10T18:45:18.557Z,20.00
2022-09-10T18:47:50.218Z,26.00
2022-09-10T18:50:20.384Z,22.75
2022-09-10T18:52:50.563Z,23.00
2022-09-10T18:55:20.573Z,23.00
2022-09-10T18:57:50.765Z,17.75
2022-09-10T19:00:20.945Z,22.25
2022-09-10T19:02:51.208Z,23.00
2022-09-10T19:05:21.145Z,26.00
2022-09-10T19:07:51.355Z,25.00
2022-09-10T19:12:50.755Z,22.00
2022-09-10T19:17:50.192Z,23.00
2022-09-10T19:22:50.050Z,19.00
2022-09-10T19:25:20.077Z,24.50
2022-09-10T19:27:50.085Z,25.00
2022-09-10T19:30:20.044Z,23.00
2022-09-10T19:32:50.002Z,23.50
2022-09-10T19:35:21.156Z,27.50
2022-09-10T19:37:52.514Z,26.50
2022-09-10T19:40:23.222Z,25.67
2022-09-10T19:42:53.587Z,25.00
2022-09-10T19:45:23.718Z,29.00
2022-09-10T19:47:53.900Z,18.67
2022-09-10T19:50:23.943Z,20.00
2022-09-10T19:52:55.122Z,26.00
2022-09-10T19:55:26.046Z,27.00
2022-09-10T19:57:56.690Z,25.00
2022-09-10T20:00:45.826Z,27.00
2022-09-10T20:03:17.219Z,26.00
2022-09-10T20:05:47.647Z,29.67
2022-09-10T20:08:18.081Z,21.50
2022-09-10T20:10:54.074Z,23.50
2022-09-10T20:13:24.182Z,25.00
2022-09-10T20:15:55.230Z,20.00
2022-09-10T20:18:33.238Z,27.00
2022-09-10T20:21:16.987Z,29.00
2022-09-10T20:23:52.331Z,25.00
2022-09-10T20:26:26.882Z,21.00
2022-09-10T20:29:06.446Z,25.50
2022-09-10T20:31:38.447Z,23.00
2022-09-10T20:36:43.530Z,25.00
2022-09-10T20:39:18.767Z,19.50
2022-09-10T20:41:50.626Z,22.50
2022-09-10T20:44:22.075Z,20.00
2022-09-10T20:46:52.137Z,24.25
2022-09-10T20:49:22.615Z,27.00
2022-09-10T20:54:22.127Z,16.00
2022-09-10T20:56:52.126Z,50.00
2022-09-10T20:59:25.605Z,29.50
2022-09-10T21:01:58.095Z,27.50
2022-09-10T21:04:28.549Z,26.00
2022-09-10T21:06:58.639Z,25.00
2022-09-10T21:09:28.630Z,22.00
2022-09-10T21:11:59.669Z,25.00
2022-09-10T21:14:33.742Z,25.00
2022-09-10T21:17:04.555Z,20.00
2022-09-10T21:22:05.423Z,26.50
2022-09-10T21:24:35.285Z,30.00
2022-09-10T21:27:05.364Z,38.75
2022-09-10T21:29:35.372Z,45.00
2022-09-10T21:34:35.622Z,29.67
2022-09-10T21:37:05.882Z,29.00
2022-09-10T21:39:36.077Z,26.00
2022-09-10T21:44:36.499Z,30.25
2022-09-10T21:47:06.517Z,35.00
2022-09-10T21:49:36.716Z,37.25
2022-09-10T21:52:06.663Z,35.25
2022-09-10T21:54:37.917Z,26.00
2022-09-10T21:57:13.038Z,29.00
2022-09-10T21:59:43.440Z,26.00
2022-09-10T22:02:13.572Z,28.75
2022-09-10T22:04:44.190Z,27.00
2022-09-10T22:07:15.469Z,30.00
2022-09-10T22:09:45.764Z,28.50
2022-09-10T22:12:15.778Z,27.50
2022-09-10T22:14:49.178Z,30.50
2022-09-10T22:17:20.584Z,24.67
2022-09-10T22:19:53.308Z,31.00
2022-09-10T22:22:23.763Z,30.00
2022-09-10T22:24:54.447Z,27.00
2022-09-10T22:27:25.274Z,30.00
2022-09-10T22:29:55.573Z,30.50
2022-09-10T22:32:25.603Z,29.00
2022-09-10T22:34:55.537Z,29.00
2022-09-10T22:37:25.605Z,26.75
2022-09-10T22:39:55.700Z,25.50
2022-09-10T22:42:27.519Z,26.67
2022-09-10T22:44:58.735Z,25.00
2022-09-10T22:49:58.567Z,23.67
2022-09-10T22:52:28.902Z,26.00
2022-09-10T22:54:58.911Z,27.00
2022-09-10T22:57:30.443Z,27.00
2022-09-10T23:00:04.422Z,29.50
2022-09-10T23:02:34.383Z,29.67
2022-09-10T23:05:04.294Z,30.50
2022-09-10T23:07:35.296Z,31.25
2022-09-10T23:10:06.212Z,31.00
2022-09-10T23:12:36.476Z,30.00
2022-09-10T23:15:08.278Z,31.00
2022-09-10T23:17:38.490Z,24.00
2022-09-10T23:20:10.140Z,27.00
2022-09-10T23:22:40.187Z,25.00
2022-09-10T23:25:10.927Z,23.00
2022-09-10T23:27:40.978Z,26.00
2022-09-10T23:30:12.047Z,25.00
2022-09-10T23:32:43.928Z,27.00
2022-09-10T23:35:13.885Z,26.00
2022-09-10T23:37:46.057Z,27.00
2022-09-10T23:40:16.145Z,22.50
2022-09-10T23:42:46.140Z,26.00
2022-09-10T23:45:16.189Z,26.00
2022-09-10T23:47:47.253Z,20.00
2022-09-10T23:50:19.218Z,24.50
2022-09-10T23:52:49.351Z,25.00
2022-09-10T23:55:20.857Z,26.00
2022-09-10T23:57:50.847Z,25.50
